DLH405 EDDF-KJFK
Flight info
| Callsign | DLH405 |
|---|---|
| Flight time | N/A |
| Altitude | 36000 |
| Route | OBOKA5S OBOKA Z28 DIBIR DCT BUDIP DCT RAVLO Y70 OTBED L60 SONEX/N0473F380 L60 PENIL M144 BAGSO DCT NEBIN/M081F390 DCT 5330N02000W 5430N03000W 5430N04000W 5230N05000W DCT SAXAN/N0456F400 N550A TOPPS DCT ENE PARCH4 |
| Aircraft | A343/H-SDE2E3FGHIJ4J5M1RWXY/LB1D1 |
Departure
| Time | 2026-04-18 07:17 |
|---|---|
| Airport | Frankfurt Main Airport (EDDF) |
Arrival
| Time | N/A |
|---|---|
| Airport | John F. Kennedy International Airport (KJFK) |
| Time | Latitude | Longitude | Altitude | Speed | Heading |
|---|---|---|---|---|---|
| 2026-04-18 06:45 | 50.04732 | 8.56271 | 367 ft | 0 kts | 340° |
| 2026-04-18 07:03 | 50.04736 | 8.56269 | 360 ft | 2 kts | 340° |
| 2026-04-18 07:03 | 50.04721 | 8.56277 | 367 ft | 1 kts | 340° |
| 2026-04-18 07:04 | 50.04709 | 8.56283 | 364 ft | 2 kts | 340° |
| 2026-04-18 07:04 | 50.04691 | 8.56293 | 367 ft | 3 kts | 340° |
| 2026-04-18 07:04 | 50.04673 | 8.56304 | 362 ft | 3 kts | 340° |
| 2026-04-18 07:04 | 50.04656 | 8.56314 | 366 ft | 3 kts | 340° |
| 2026-04-18 07:05 | 50.04638 | 8.56328 | 365 ft | 3 kts | 306° |
| 2026-04-18 07:05 | 50.04631 | 8.56345 | 363 ft | 0 kts | 282° |
| 2026-04-18 07:06 | 50.04631 | 8.56343 | 363 ft | 1 kts | 282° |
| 2026-04-18 07:06 | 50.04632 | 8.56338 | 364 ft | 0 kts | 282° |
| 2026-04-18 07:10 | 50.04632 | 8.56335 | 360 ft | 1 kts | 282° |
| 2026-04-18 07:10 | 50.04633 | 8.56310 | 363 ft | 5 kts | 269° |
| 2026-04-18 07:10 | 50.04617 | 8.56227 | 364 ft | 9 kts | 249° |
| 2026-04-18 07:10 | 50.04593 | 8.56129 | 366 ft | 10 kts | 249° |
| 2026-04-18 07:11 | 50.04567 | 8.56022 | 366 ft | 11 kts | 249° |
| 2026-04-18 07:11 | 50.04512 | 8.55948 | 368 ft | 10 kts | 197° |
| 2026-04-18 07:11 | 50.04446 | 8.55919 | 367 ft | 10 kts | 195° |
| 2026-04-18 07:11 | 50.04379 | 8.55912 | 364 ft | 10 kts | 173° |
| 2026-04-18 07:12 | 50.04308 | 8.55950 | 363 ft | 11 kts | 159° |
| 2026-04-18 07:12 | 50.04234 | 8.55936 | 362 ft | 12 kts | 222° |
| 2026-04-18 07:12 | 50.04204 | 8.55793 | 363 ft | 17 kts | 249° |
| 2026-04-18 07:12 | 50.04154 | 8.55584 | 364 ft | 24 kts | 249° |
| 2026-04-18 07:13 | 50.04098 | 8.55349 | 360 ft | 23 kts | 249° |
| 2026-04-18 07:13 | 50.04044 | 8.55127 | 362 ft | 21 kts | 249° |
| 2026-04-18 07:13 | 50.03993 | 8.54913 | 363 ft | 21 kts | 250° |
| 2026-04-18 07:13 | 50.03941 | 8.54694 | 358 ft | 22 kts | 249° |
| 2026-04-18 07:14 | 50.03887 | 8.54471 | 357 ft | 22 kts | 249° |
| 2026-04-18 07:14 | 50.03812 | 8.54260 | 359 ft | 22 kts | 242° |
| 2026-04-18 07:14 | 50.03756 | 8.54042 | 357 ft | 22 kts | 249° |
| 2026-04-18 07:14 | 50.03704 | 8.53824 | 352 ft | 22 kts | 249° |
| 2026-04-18 07:15 | 50.03651 | 8.53606 | 351 ft | 22 kts | 249° |
| 2026-04-18 07:15 | 50.03597 | 8.53389 | 350 ft | 21 kts | 249° |
| 2026-04-18 07:15 | 50.03545 | 8.53173 | 352 ft | 21 kts | 249° |
| 2026-04-18 07:15 | 50.03493 | 8.52957 | 336 ft | 21 kts | 250° |
| 2026-04-18 07:16 | 50.03437 | 8.52746 | 336 ft | 20 kts | 249° |
| 2026-04-18 07:16 | 50.03404 | 8.52620 | 334 ft | 7 kts | 245° |
| 2026-04-18 07:16 | 50.03375 | 8.52597 | 335 ft | 4 kts | 190° |
| 2026-04-18 07:16 | 50.03327 | 8.52595 | 337 ft | 16 kts | 179° |
| 2026-04-18 07:17 | 50.03005 | 8.52598 | 336 ft | 80 kts | 179° |
| 2026-04-18 07:17 | 50.02233 | 8.52605 | 339 ft | 140 kts | 179° |
| 2026-04-18 07:17 | 50.01089 | 8.52616 | 410 ft | 182 kts | 179° |
| 2026-04-18 07:17 | 49.99803 | 8.52602 | 1025 ft | 188 kts | 180° |
| 2026-04-18 07:18 | 49.98478 | 8.52567 | 1625 ft | 197 kts | 184° |
| 2026-04-18 07:18 | 49.97140 | 8.51797 | 1784 ft | 219 kts | 221° |
| 2026-04-18 07:18 | 49.96005 | 8.50039 | 2086 ft | 241 kts | 227° |
| 2026-04-18 07:18 | 49.94837 | 8.48102 | 2748 ft | 248 kts | 226° |
| 2026-04-18 07:19 | 49.93657 | 8.46187 | 3546 ft | 249 kts | 225° |
| 2026-04-18 07:19 | 49.92427 | 8.44263 | 4257 ft | 254 kts | 224° |
| 2026-04-18 07:19 | 49.91149 | 8.42317 | 4975 ft | 259 kts | 223° |
| 2026-04-18 07:19 | 49.89830 | 8.40378 | 5757 ft | 262 kts | 223° |
| 2026-04-18 07:20 | 49.88537 | 8.38379 | 6513 ft | 265 kts | 230° |
| 2026-04-18 07:20 | 49.87626 | 8.35886 | 7217 ft | 269 kts | 253° |
| 2026-04-18 07:20 | 49.87485 | 8.32996 | 7923 ft | 273 kts | 278° |
| 2026-04-18 07:20 | 49.88153 | 8.30239 | 8647 ft | 276 kts | 299° |
| 2026-04-18 07:21 | 49.89178 | 8.27713 | 9378 ft | 279 kts | 302° |
| 2026-04-18 07:21 | 49.90252 | 8.25189 | 10090 ft | 281 kts | 302° |
| 2026-04-18 07:21 | 49.91335 | 8.22617 | 10565 ft | 291 kts | 301° |
| 2026-04-18 07:21 | 49.92462 | 8.19912 | 10866 ft | 306 kts | 301° |
| 2026-04-18 07:22 | 49.93658 | 8.17092 | 11151 ft | 320 kts | 304° |
| 2026-04-18 07:22 | 49.95197 | 8.14484 | 11425 ft | 336 kts | 316° |
| 2026-04-18 07:22 | 49.96984 | 8.12066 | 11837 ft | 344 kts | 318° |
| 2026-04-18 07:22 | 49.98821 | 8.09643 | 12399 ft | 348 kts | 318° |
| 2026-04-18 07:23 | 50.00670 | 8.07194 | 13035 ft | 350 kts | 317° |
| 2026-04-18 07:23 | 50.02524 | 8.04728 | 13674 ft | 352 kts | 317° |
| 2026-04-18 07:23 | 50.04383 | 8.02245 | 14281 ft | 354 kts | 317° |
| 2026-04-18 07:23 | 50.06239 | 7.99759 | 14802 ft | 357 kts | 317° |
| 2026-04-18 07:24 | 50.08129 | 7.97225 | 15317 ft | 361 kts | 317° |
| 2026-04-18 07:24 | 50.10037 | 7.94662 | 15857 ft | 364 kts | 317° |
| 2026-04-18 07:24 | 50.11962 | 7.92072 | 16392 ft | 367 kts | 317° |
| 2026-04-18 07:24 | 50.13906 | 7.89459 | 16919 ft | 370 kts | 317° |
| 2026-04-18 07:25 | 50.15861 | 7.86827 | 17467 ft | 373 kts | 317° |
| 2026-04-18 07:25 | 50.17831 | 7.84167 | 17957 ft | 377 kts | 317° |
| 2026-04-18 07:25 | 50.19822 | 7.81472 | 18482 ft | 380 kts | 316° |
| 2026-04-18 07:25 | 50.21828 | 7.78758 | 18941 ft | 383 kts | 316° |
| 2026-04-18 07:26 | 50.23854 | 7.76024 | 19396 ft | 386 kts | 317° |
| 2026-04-18 07:26 | 50.26051 | 7.73572 | 19853 ft | 392 kts | 328° |
| 2026-04-18 07:26 | 50.28508 | 7.71680 | 20314 ft | 396 kts | 333° |
| 2026-04-18 07:26 | 50.31039 | 7.69946 | 20763 ft | 399 kts | 334° |
| 2026-04-18 07:27 | 50.33594 | 7.68216 | 21211 ft | 402 kts | 333° |
| 2026-04-18 07:27 | 50.36175 | 7.66462 | 21647 ft | 404 kts | 333° |
| 2026-04-18 07:27 | 50.38762 | 7.64698 | 22089 ft | 407 kts | 333° |
| 2026-04-18 07:27 | 50.41366 | 7.62912 | 22512 ft | 410 kts | 333° |
| 2026-04-18 07:28 | 50.43992 | 7.61106 | 22927 ft | 413 kts | 333° |
| 2026-04-18 07:28 | 50.46593 | 7.59315 | 23326 ft | 415 kts | 333° |
| 2026-04-18 07:28 | 50.49283 | 7.57460 | 23735 ft | 417 kts | 333° |
| 2026-04-18 07:28 | 50.51909 | 7.55648 | 24050 ft | 420 kts | 333° |
| 2026-04-18 07:29 | 50.54587 | 7.53773 | 24381 ft | 422 kts | 331° |
| 2026-04-18 07:29 | 50.57152 | 7.51555 | 24710 ft | 421 kts | 325° |
| 2026-04-18 07:29 | 50.59630 | 7.49074 | 25043 ft | 423 kts | 324° |
| 2026-04-18 07:29 | 50.62101 | 7.46541 | 25381 ft | 424 kts | 323° |
| 2026-04-18 07:30 | 50.64582 | 7.43992 | 25678 ft | 427 kts | 323° |
| 2026-04-18 07:30 | 50.67080 | 7.41424 | 25959 ft | 430 kts | 323° |
| 2026-04-18 07:30 | 50.69590 | 7.38843 | 26268 ft | 432 kts | 323° |
| 2026-04-18 07:30 | 50.72095 | 7.36211 | 26586 ft | 432 kts | 320° |
| 2026-04-18 07:31 | 50.74399 | 7.33183 | 26883 ft | 430 kts | 311° |
| 2026-04-18 07:31 | 50.76361 | 7.29624 | 27179 ft | 428 kts | 304° |
| 2026-04-18 07:31 | 50.78150 | 7.25857 | 27461 ft | 429 kts | 303° |
| 2026-04-18 07:31 | 50.79884 | 7.21996 | 27736 ft | 431 kts | 302° |
| 2026-04-18 07:32 | 50.81595 | 7.18093 | 28016 ft | 432 kts | 301° |
| 2026-04-18 07:32 | 50.83303 | 7.14177 | 28301 ft | 434 kts | 301° |
| 2026-04-18 07:32 | 50.85023 | 7.10242 | 28577 ft | 436 kts | 301° |
| 2026-04-18 07:32 | 50.86759 | 7.06292 | 28836 ft | 438 kts | 302° |
| 2026-04-18 07:33 | 50.88487 | 7.02374 | 29106 ft | 439 kts | 301° |
| 2026-04-18 07:33 | 50.90244 | 6.98400 | 29363 ft | 441 kts | 301° |
| 2026-04-18 07:33 | 50.92008 | 6.94418 | 29606 ft | 442 kts | 301° |
| 2026-04-18 07:33 | 50.93779 | 6.90416 | 29850 ft | 444 kts | 301° |
| 2026-04-18 07:34 | 50.95557 | 6.86388 | 30095 ft | 446 kts | 301° |
| 2026-04-18 07:34 | 50.97335 | 6.82353 | 30320 ft | 447 kts | 301° |
| 2026-04-18 07:34 | 50.99119 | 6.78297 | 30520 ft | 449 kts | 301° |
| 2026-04-18 07:34 | 51.00907 | 6.74225 | 30718 ft | 450 kts | 301° |
| 2026-04-18 07:35 | 51.02698 | 6.70141 | 30915 ft | 451 kts | 301° |
| 2026-04-18 07:35 | 51.04491 | 6.66047 | 31159 ft | 451 kts | 301° |
| 2026-04-18 07:35 | 51.06281 | 6.61954 | 31447 ft | 450 kts | 301° |
| 2026-04-18 07:35 | 51.08065 | 6.57868 | 31707 ft | 450 kts | 300° |
| 2026-04-18 07:36 | 51.09846 | 6.53778 | 31977 ft | 449 kts | 300° |
| 2026-04-18 07:36 | 51.11622 | 6.49689 | 32236 ft | 449 kts | 300° |
| 2026-04-18 07:36 | 51.13396 | 6.45604 | 32496 ft | 448 kts | 300° |
| 2026-04-18 07:36 | 51.15163 | 6.41529 | 32738 ft | 447 kts | 300° |
| 2026-04-18 07:37 | 51.16930 | 6.37448 | 32987 ft | 447 kts | 300° |
| 2026-04-18 07:37 | 51.18696 | 6.33361 | 33187 ft | 448 kts | 300° |
| 2026-04-18 07:37 | 51.20458 | 6.29276 | 33420 ft | 447 kts | 300° |
| 2026-04-18 07:37 | 51.22217 | 6.25193 | 33657 ft | 446 kts | 300° |
| 2026-04-18 07:38 | 51.23975 | 6.21106 | 33886 ft | 446 kts | 300° |
| 2026-04-18 07:38 | 51.25727 | 6.17025 | 34106 ft | 446 kts | 298° |
| 2026-04-18 07:38 | 51.27478 | 6.12939 | 34301 ft | 446 kts | 298° |
| 2026-04-18 07:38 | 51.29221 | 6.08844 | 34478 ft | 445 kts | 298° |
| 2026-04-18 07:39 | 51.30925 | 6.04724 | 34664 ft | 444 kts | 297° |
| 2026-04-18 07:39 | 51.32039 | 6.01988 | 34769 ft | 443 kts | 297° |
| 2026-04-18 07:39 | 51.33713 | 5.97850 | 34947 ft | 443 kts | 297° |
| 2026-04-18 07:39 | 51.35384 | 5.93716 | 35106 ft | 442 kts | 297° |
| 2026-04-18 07:40 | 51.37675 | 5.88314 | 35309 ft | 446 kts | 302° |
| 2026-04-18 07:40 | 51.39024 | 5.85744 | 35424 ft | 448 kts | 306° |
| 2026-04-18 07:40 | 51.41117 | 5.82038 | 35586 ft | 449 kts | 307° |
| 2026-04-18 07:40 | 51.43943 | 5.77206 | 35803 ft | 449 kts | 307° |
| 2026-04-18 07:41 | 51.45399 | 5.74753 | 35910 ft | 450 kts | 307° |
| 2026-04-18 07:41 | 51.47561 | 5.71123 | 36023 ft | 450 kts | 307° |
| 2026-04-18 07:41 | 51.49726 | 5.67489 | 36156 ft | 450 kts | 307° |
| 2026-04-18 07:41 | 51.51891 | 5.63845 | 36207 ft | 451 kts | 307° |
| 2026-04-18 07:42 | 51.56158 | 5.56632 | 36208 ft | 446 kts | 307° |
| 2026-04-18 07:42 | 51.60414 | 5.49391 | 36206 ft | 445 kts | 307° |
| 2026-04-18 07:43 | 51.64665 | 5.42127 | 36205 ft | 446 kts | 307° |
| 2026-04-18 07:43 | 51.68915 | 5.34846 | 36236 ft | 446 kts | 307° |
| 2026-04-18 07:44 | 51.73161 | 5.27555 | 36204 ft | 446 kts | 306° |
| 2026-04-18 07:44 | 51.77401 | 5.20253 | 36207 ft | 446 kts | 306° |
| 2026-04-18 07:45 | 51.81632 | 5.12944 | 36206 ft | 445 kts | 306° |
| 2026-04-18 07:45 | 51.85857 | 5.05624 | 36207 ft | 445 kts | 306° |
| 2026-04-18 07:46 | 51.90084 | 4.98280 | 36205 ft | 445 kts | 306° |
| 2026-04-18 07:46 | 51.94300 | 4.90932 | 36203 ft | 445 kts | 306° |
| 2026-04-18 07:47 | 51.98522 | 4.83552 | 36201 ft | 445 kts | 306° |
| 2026-04-18 07:47 | 52.02695 | 4.76237 | 36196 ft | 445 kts | 306° |
| 2026-04-18 07:48 | 52.06895 | 4.68851 | 36193 ft | 445 kts | 306° |
| 2026-04-18 07:48 | 52.11090 | 4.61453 | 36196 ft | 445 kts | 306° |
| 2026-04-18 07:49 | 52.15281 | 4.54039 | 36197 ft | 445 kts | 306° |
| 2026-04-18 07:49 | 52.19464 | 4.46617 | 36198 ft | 445 kts | 306° |
| 2026-04-18 07:50 | 52.23647 | 4.39173 | 36194 ft | 445 kts | 306° |
| 2026-04-18 07:50 | 52.27829 | 4.31709 | 36195 ft | 445 kts | 306° |
| 2026-04-18 07:51 | 52.32003 | 4.24236 | 36191 ft | 445 kts | 305° |
| 2026-04-18 07:51 | 52.36153 | 4.16785 | 36195 ft | 445 kts | 305° |
| 2026-04-18 07:52 | 52.40314 | 4.09292 | 36199 ft | 445 kts | 305° |
| 2026-04-18 07:52 | 52.44473 | 4.01777 | 36183 ft | 445 kts | 305° |
| 2026-04-18 07:53 | 52.48631 | 3.94242 | 36201 ft | 446 kts | 305° |
| 2026-04-18 07:53 | 52.52792 | 3.86678 | 36189 ft | 446 kts | 305° |
| 2026-04-18 07:54 | 52.56948 | 3.79102 | 36177 ft | 446 kts | 305° |
| 2026-04-18 07:54 | 52.61096 | 3.71517 | 36185 ft | 446 kts | 305° |
| 2026-04-18 07:55 | 52.65241 | 3.63914 | 36183 ft | 446 kts | 305° |
| 2026-04-18 07:55 | 52.69380 | 3.56300 | 36176 ft | 446 kts | 305° |
| 2026-04-18 07:56 | 52.73488 | 3.48717 | 36191 ft | 447 kts | 305° |
| 2026-04-18 07:56 | 52.77633 | 3.41040 | 36180 ft | 448 kts | 305° |
| 2026-04-18 07:57 | 52.81780 | 3.33339 | 36177 ft | 449 kts | 305° |
| 2026-04-18 07:57 | 52.85925 | 3.25620 | 36179 ft | 449 kts | 305° |
| 2026-04-18 07:58 | 52.91378 | 3.13321 | 36178 ft | 434 kts | 288° |
| 2026-04-18 07:59 | 52.93182 | 3.03936 | 36174 ft | 426 kts | 278° |
| 2026-04-18 07:59 | 52.94478 | 2.94339 | 36181 ft | 427 kts | 277° |
| 2026-04-18 08:00 | 52.95697 | 2.84685 | 36184 ft | 428 kts | 277° |
| 2026-04-18 08:00 | 52.96927 | 2.75015 | 36186 ft | 428 kts | 277° |
| 2026-04-18 08:01 | 52.98170 | 2.65354 | 36199 ft | 428 kts | 277° |
| 2026-04-18 08:01 | 52.99413 | 2.55671 | 36184 ft | 430 kts | 277° |
| 2026-04-18 08:02 | 53.00652 | 2.45952 | 36186 ft | 431 kts | 277° |
| 2026-04-18 08:02 | 53.01879 | 2.36262 | 36186 ft | 431 kts | 277° |
| 2026-04-18 08:03 | 53.03103 | 2.26512 | 36181 ft | 431 kts | 277° |
| 2026-04-18 08:03 | 53.04321 | 2.16751 | 36184 ft | 431 kts | 277° |
| 2026-04-18 08:04 | 53.05531 | 2.06994 | 36183 ft | 431 kts | 277° |
| 2026-04-18 08:04 | 53.06734 | 1.97226 | 36187 ft | 430 kts | 277° |
| 2026-04-18 08:05 | 53.07922 | 1.87466 | 36182 ft | 430 kts | 277° |
| 2026-04-18 08:05 | 53.09095 | 1.77762 | 36185 ft | 430 kts | 277° |
| 2026-04-18 08:06 | 53.10270 | 1.67987 | 36186 ft | 430 kts | 277° |
| 2026-04-18 08:06 | 53.11436 | 1.58219 | 36183 ft | 430 kts | 277° |
| 2026-04-18 08:07 | 53.12595 | 1.48434 | 36184 ft | 430 kts | 277° |
| 2026-04-18 08:07 | 53.13743 | 1.38676 | 36180 ft | 429 kts | 277° |
| 2026-04-18 08:08 | 53.14883 | 1.28911 | 36179 ft | 429 kts | 276° |
| 2026-04-18 08:08 | 53.16014 | 1.19142 | 36182 ft | 429 kts | 276° |
| 2026-04-18 08:09 | 53.17137 | 1.09376 | 36187 ft | 429 kts | 276° |
| 2026-04-18 08:09 | 53.18252 | 0.99601 | 36197 ft | 429 kts | 276° |
| 2026-04-18 08:10 | 53.19358 | 0.89833 | 36180 ft | 428 kts | 276° |
| 2026-04-18 08:10 | 53.20454 | 0.80077 | 36178 ft | 428 kts | 276° |
| 2026-04-18 08:11 | 53.21541 | 0.70317 | 36180 ft | 428 kts | 276° |
| 2026-04-18 08:11 | 53.22614 | 0.60618 | 36173 ft | 428 kts | 276° |
| 2026-04-18 08:12 | 53.23691 | 0.50843 | 36196 ft | 428 kts | 276° |
| 2026-04-18 08:12 | 53.24753 | 0.41072 | 36173 ft | 428 kts | 276° |
| 2026-04-18 08:13 | 53.25811 | 0.31290 | 36181 ft | 428 kts | 276° |
| 2026-04-18 08:13 | 53.26858 | 0.21475 | 36169 ft | 429 kts | 276° |
| 2026-04-18 08:14 | 53.27898 | 0.11667 | 36172 ft | 429 kts | 276° |
| 2026-04-18 08:14 | 53.28933 | 0.01846 | 36172 ft | 429 kts | 276° |
| 2026-04-18 08:15 | 53.29962 | -0.07975 | 36162 ft | 429 kts | 276° |
| 2026-04-18 08:15 | 53.30978 | -0.17810 | 36161 ft | 429 kts | 275° |
| 2026-04-18 08:16 | 53.31987 | -0.27654 | 36159 ft | 429 kts | 275° |
| 2026-04-18 08:16 | 53.32988 | -0.37493 | 36160 ft | 429 kts | 275° |
| 2026-04-18 08:17 | 53.33978 | -0.47282 | 36160 ft | 429 kts | 275° |
| 2026-04-18 08:17 | 53.34962 | -0.57127 | 36159 ft | 429 kts | 275° |
| 2026-04-18 08:18 | 53.35939 | -0.66982 | 36159 ft | 429 kts | 275° |
| 2026-04-18 08:18 | 53.36914 | -0.76835 | 36161 ft | 429 kts | 275° |
| 2026-04-18 08:19 | 53.37873 | -0.86698 | 36160 ft | 429 kts | 275° |
| 2026-04-18 08:19 | 53.38829 | -0.96564 | 36159 ft | 429 kts | 275° |
| 2026-04-18 08:20 | 53.39776 | -1.06429 | 36173 ft | 429 kts | 275° |
| 2026-04-18 08:20 | 53.40713 | -1.16311 | 36162 ft | 429 kts | 275° |
| 2026-04-18 08:21 | 53.41643 | -1.26196 | 36162 ft | 429 kts | 275° |
| 2026-04-18 08:21 | 53.42567 | -1.36091 | 36164 ft | 429 kts | 275° |
| 2026-04-18 08:22 | 53.43474 | -1.45988 | 36166 ft | 429 kts | 275° |
| 2026-04-18 08:22 | 53.44376 | -1.55886 | 36180 ft | 429 kts | 275° |
| 2026-04-18 08:23 | 53.45275 | -1.65792 | 36165 ft | 429 kts | 275° |
| 2026-04-18 08:23 | 53.46161 | -1.75693 | 36165 ft | 429 kts | 275° |
| 2026-04-18 08:24 | 53.47043 | -1.85599 | 36164 ft | 429 kts | 275° |
| 2026-04-18 08:24 | 53.47914 | -1.95508 | 36168 ft | 429 kts | 274° |
| 2026-04-18 08:25 | 53.48770 | -2.05372 | 36167 ft | 429 kts | 274° |
| 2026-04-18 08:25 | 53.49624 | -2.15308 | 36198 ft | 431 kts | 275° |
| 2026-04-18 08:26 | 53.50483 | -2.25325 | 36359 ft | 434 kts | 275° |
| 2026-04-18 08:26 | 53.50908 | -2.30343 | 36469 ft | 434 kts | 275° |
| 2026-04-18 08:26 | 53.51330 | -2.35371 | 36576 ft | 435 kts | 275° |
| 2026-04-18 08:26 | 53.51750 | -2.40401 | 36689 ft | 435 kts | 275° |
| 2026-04-18 08:27 | 53.52169 | -2.45439 | 36805 ft | 436 kts | 275° |
| 2026-04-18 08:27 | 53.52869 | -2.53897 | 36992 ft | 436 kts | 275° |
| 2026-04-18 08:27 | 53.53285 | -2.58956 | 37111 ft | 436 kts | 275° |
| 2026-04-18 08:28 | 53.53698 | -2.64013 | 37197 ft | 437 kts | 275° |
| 2026-04-18 08:28 | 53.54522 | -2.74166 | 37368 ft | 438 kts | 275° |
| 2026-04-18 08:29 | 53.55337 | -2.84327 | 37570 ft | 439 kts | 275° |
| 2026-04-18 08:29 | 53.56146 | -2.94518 | 37761 ft | 440 kts | 275° |
| 2026-04-18 08:30 | 53.56946 | -3.04720 | 37942 ft | 440 kts | 275° |
| 2026-04-18 08:30 | 53.57738 | -3.14925 | 38167 ft | 440 kts | 275° |
| 2026-04-18 08:31 | 53.58516 | -3.25062 | 38181 ft | 437 kts | 275° |
| 2026-04-18 08:31 | 53.59284 | -3.35174 | 38181 ft | 434 kts | 275° |
| 2026-04-18 08:32 | 53.60040 | -3.45267 | 38175 ft | 434 kts | 275° |
| 2026-04-18 08:32 | 53.60787 | -3.55363 | 38178 ft | 435 kts | 275° |
| 2026-04-18 08:33 | 53.61527 | -3.65467 | 38188 ft | 434 kts | 275° |
| 2026-04-18 08:33 | 53.62111 | -3.75557 | 38174 ft | 431 kts | 272° |
| 2026-04-18 08:34 | 53.62463 | -3.85627 | 38188 ft | 430 kts | 271° |
| 2026-04-18 08:34 | 53.62815 | -3.95699 | 38183 ft | 430 kts | 271° |
| 2026-04-18 08:35 | 53.63203 | -4.05769 | 38192 ft | 430 kts | 272° |
| 2026-04-18 08:35 | 53.63600 | -4.15839 | 38197 ft | 430 kts | 272° |
| 2026-04-18 08:36 | 53.63986 | -4.25929 | 38191 ft | 432 kts | 271° |
| 2026-04-18 08:36 | 53.64360 | -4.35962 | 38194 ft | 432 kts | 272° |
| 2026-04-18 08:37 | 53.64728 | -4.46086 | 38191 ft | 432 kts | 271° |
| 2026-04-18 08:37 | 53.65085 | -4.56194 | 38194 ft | 432 kts | 271° |
| 2026-04-18 08:38 | 53.65431 | -4.66281 | 38191 ft | 432 kts | 271° |
| 2026-04-18 08:38 | 53.65773 | -4.76430 | 38178 ft | 433 kts | 271° |
| 2026-04-18 08:39 | 53.66109 | -4.86571 | 38194 ft | 433 kts | 272° |
| 2026-04-18 08:39 | 53.66441 | -4.96722 | 38195 ft | 433 kts | 271° |
| 2026-04-18 08:40 | 53.66761 | -5.06866 | 38197 ft | 433 kts | 271° |
| 2026-04-18 08:40 | 53.67072 | -5.17012 | 38198 ft | 433 kts | 271° |
| 2026-04-18 08:41 | 53.67370 | -5.27179 | 38204 ft | 434 kts | 271° |
| 2026-04-18 08:41 | 53.67656 | -5.37369 | 38204 ft | 436 kts | 271° |
| 2026-04-18 08:42 | 53.67936 | -5.47588 | 38204 ft | 436 kts | 271° |
| 2026-04-18 08:42 | 53.68190 | -5.57739 | 38203 ft | 436 kts | 270° |
| 2026-04-18 08:43 | 53.68378 | -5.67950 | 38207 ft | 436 kts | 270° |
| 2026-04-18 08:43 | 53.68555 | -5.78173 | 38209 ft | 435 kts | 270° |
| 2026-04-18 08:44 | 53.68733 | -5.88391 | 38202 ft | 436 kts | 270° |
| 2026-04-18 08:44 | 53.68907 | -5.98602 | 38202 ft | 435 kts | 270° |
| 2026-04-18 08:45 | 53.69073 | -6.08828 | 38200 ft | 435 kts | 270° |
| 2026-04-18 08:45 | 53.69231 | -6.19047 | 38199 ft | 435 kts | 270° |
| 2026-04-18 08:46 | 53.69379 | -6.29265 | 38199 ft | 435 kts | 270° |
| 2026-04-18 08:46 | 53.69518 | -6.39485 | 38198 ft | 436 kts | 270° |
| 2026-04-18 08:47 | 53.69648 | -6.49632 | 38201 ft | 436 kts | 270° |
| 2026-04-18 08:47 | 53.69771 | -6.59856 | 38199 ft | 436 kts | 270° |
| 2026-04-18 08:48 | 53.69885 | -6.70071 | 38201 ft | 436 kts | 270° |
| 2026-04-18 08:48 | 53.69990 | -6.80302 | 38203 ft | 436 kts | 270° |
| 2026-04-18 08:49 | 53.70086 | -6.90529 | 38202 ft | 436 kts | 270° |
| 2026-04-18 08:49 | 53.70173 | -7.00749 | 38201 ft | 436 kts | 270° |
| 2026-04-18 08:50 | 53.70252 | -7.10983 | 38203 ft | 436 kts | 270° |
| 2026-04-18 08:50 | 53.70322 | -7.21200 | 38204 ft | 436 kts | 270° |
| 2026-04-18 08:51 | 53.70383 | -7.31431 | 38203 ft | 436 kts | 270° |
| 2026-04-18 08:51 | 53.70437 | -7.41677 | 38202 ft | 437 kts | 270° |
| 2026-04-18 08:52 | 53.70481 | -7.51879 | 38207 ft | 437 kts | 270° |
| 2026-04-18 08:52 | 53.70517 | -7.62155 | 38202 ft | 438 kts | 270° |
| 2026-04-18 08:53 | 53.70543 | -7.72425 | 38207 ft | 438 kts | 269° |
| 2026-04-18 08:53 | 53.70560 | -7.82698 | 38215 ft | 438 kts | 269° |
| 2026-04-18 08:54 | 53.70569 | -7.92967 | 38206 ft | 437 kts | 270° |
| 2026-04-18 08:54 | 53.70570 | -8.03230 | 38206 ft | 437 kts | 269° |
| 2026-04-18 08:55 | 53.70561 | -8.13486 | 38206 ft | 437 kts | 269° |
| 2026-04-18 08:55 | 53.70544 | -8.23741 | 38215 ft | 437 kts | 269° |
| 2026-04-18 08:56 | 53.70519 | -8.34000 | 38226 ft | 437 kts | 269° |
| 2026-04-18 08:56 | 53.70483 | -8.44254 | 38217 ft | 437 kts | 270° |
| 2026-04-18 08:57 | 53.70415 | -8.59635 | 38219 ft | 437 kts | 269° |
| 2026-04-18 08:57 | 53.70358 | -8.69900 | 38218 ft | 437 kts | 269° |
| 2026-04-18 08:58 | 53.70292 | -8.80151 | 38219 ft | 437 kts | 269° |
| 2026-04-18 08:58 | 53.70218 | -8.90417 | 38217 ft | 437 kts | 269° |
| 2026-04-18 08:59 | 53.70135 | -9.00638 | 38227 ft | 438 kts | 269° |
| 2026-04-18 08:59 | 53.70043 | -9.10913 | 38222 ft | 438 kts | 269° |
| 2026-04-18 09:00 | 53.69942 | -9.21188 | 38239 ft | 438 kts | 269° |
| 2026-04-18 09:00 | 53.69833 | -9.31477 | 38243 ft | 438 kts | 269° |
| 2026-04-18 09:01 | 53.69715 | -9.41741 | 38247 ft | 438 kts | 269° |
| 2026-04-18 09:01 | 53.69588 | -9.52033 | 38255 ft | 439 kts | 269° |
| 2026-04-18 09:02 | 53.69451 | -9.62324 | 38268 ft | 439 kts | 269° |
| 2026-04-18 09:02 | 53.69306 | -9.72618 | 38268 ft | 439 kts | 269° |
| 2026-04-18 09:03 | 53.69152 | -9.82913 | 38278 ft | 439 kts | 269° |
| 2026-04-18 09:03 | 53.68989 | -9.93211 | 38271 ft | 439 kts | 269° |
| 2026-04-18 09:04 | 53.68817 | -10.03498 | 38283 ft | 438 kts | 269° |
| 2026-04-18 09:04 | 53.68637 | -10.13773 | 38284 ft | 438 kts | 269° |
| 2026-04-18 09:05 | 53.68449 | -10.24046 | 38280 ft | 438 kts | 269° |
| 2026-04-18 09:05 | 53.68251 | -10.34321 | 38283 ft | 438 kts | 269° |
| 2026-04-18 09:06 | 53.68045 | -10.44596 | 38287 ft | 438 kts | 269° |
| 2026-04-18 09:06 | 53.67829 | -10.54882 | 38291 ft | 439 kts | 269° |
| 2026-04-18 09:07 | 53.67604 | -10.65175 | 38284 ft | 439 kts | 269° |
| 2026-04-18 09:07 | 53.67371 | -10.75472 | 38284 ft | 439 kts | 269° |
| 2026-04-18 09:08 | 53.67130 | -10.85693 | 38287 ft | 439 kts | 269° |
| 2026-04-18 09:08 | 53.66879 | -10.95988 | 38289 ft | 439 kts | 268° |
| 2026-04-18 09:09 | 53.66620 | -11.06280 | 38290 ft | 439 kts | 268° |
| 2026-04-18 09:09 | 53.66351 | -11.16575 | 38296 ft | 439 kts | 268° |
| 2026-04-18 09:10 | 53.66074 | -11.26856 | 38295 ft | 439 kts | 268° |
| 2026-04-18 09:10 | 53.65787 | -11.37144 | 38295 ft | 439 kts | 268° |
| 2026-04-18 09:11 | 53.65543 | -11.45698 | 38292 ft | 439 kts | 268° |
| 2026-04-18 09:11 | 53.65240 | -11.55986 | 38297 ft | 439 kts | 268° |
| 2026-04-18 09:12 | 53.64929 | -11.66265 | 38303 ft | 439 kts | 268° |
| 2026-04-18 09:12 | 53.64609 | -11.76545 | 38304 ft | 439 kts | 268° |
| 2026-04-18 09:13 | 53.64280 | -11.86839 | 38306 ft | 439 kts | 268° |
| 2026-04-18 09:13 | 53.63942 | -11.97124 | 38307 ft | 440 kts | 268° |
| 2026-04-18 09:14 | 53.63595 | -12.07401 | 38306 ft | 439 kts | 268° |
| 2026-04-18 09:14 | 53.63241 | -12.17659 | 38305 ft | 439 kts | 268° |
| 2026-04-18 09:15 | 53.62879 | -12.27867 | 38306 ft | 439 kts | 268° |
| 2026-04-18 09:15 | 53.62504 | -12.38207 | 38308 ft | 439 kts | 268° |
| 2026-04-18 09:16 | 53.62122 | -12.48482 | 38308 ft | 439 kts | 268° |
| 2026-04-18 09:16 | 53.61734 | -12.58674 | 38308 ft | 438 kts | 268° |
| 2026-04-18 09:17 | 53.61336 | -12.68891 | 38314 ft | 436 kts | 268° |
| 2026-04-18 09:17 | 53.60931 | -12.79091 | 38311 ft | 436 kts | 268° |
| 2026-04-18 09:18 | 53.60518 | -12.89283 | 38312 ft | 436 kts | 268° |
| 2026-04-18 09:18 | 53.60096 | -12.99454 | 38318 ft | 435 kts | 268° |
| 2026-04-18 09:19 | 53.59666 | -13.09623 | 38315 ft | 435 kts | 268° |
| 2026-04-18 09:19 | 53.59228 | -13.19767 | 38318 ft | 434 kts | 268° |
| 2026-04-18 09:20 | 53.58782 | -13.29900 | 38317 ft | 434 kts | 267° |
| 2026-04-18 09:20 | 53.58328 | -13.40034 | 38321 ft | 434 kts | 267° |
| 2026-04-18 09:21 | 53.57864 | -13.50165 | 38326 ft | 434 kts | 267° |
| 2026-04-18 09:21 | 53.57392 | -13.60291 | 38315 ft | 434 kts | 267° |
| 2026-04-18 09:22 | 53.56912 | -13.70440 | 38318 ft | 436 kts | 267° |
| 2026-04-18 09:22 | 53.56423 | -13.80604 | 38318 ft | 436 kts | 267° |
| 2026-04-18 09:23 | 53.55924 | -13.90762 | 38323 ft | 436 kts | 267° |
| 2026-04-18 09:23 | 53.55415 | -14.00931 | 38327 ft | 436 kts | 267° |
| 2026-04-18 09:24 | 53.54898 | -14.11089 | 38314 ft | 436 kts | 267° |
| 2026-04-18 09:24 | 53.54372 | -14.21275 | 38331 ft | 438 kts | 267° |
| 2026-04-18 09:25 | 53.53835 | -14.31481 | 38328 ft | 439 kts | 266° |
| 2026-04-18 09:25 | 53.53289 | -14.41690 | 38334 ft | 439 kts | 266° |
| 2026-04-18 09:26 | 53.52734 | -14.51903 | 38334 ft | 439 kts | 266° |
| 2026-04-18 09:26 | 53.52171 | -14.62101 | 38336 ft | 439 kts | 266° |
| 2026-04-18 09:27 | 53.51597 | -14.72319 | 38336 ft | 439 kts | 266° |
| 2026-04-18 09:27 | 53.51020 | -14.82466 | 38336 ft | 439 kts | 266° |
| 2026-04-18 09:28 | 53.50430 | -14.92679 | 38339 ft | 439 kts | 266° |
| 2026-04-18 09:28 | 53.50105 | -15.02891 | 38417 ft | 437 kts | 272° |
| 2026-04-18 09:29 | 53.50244 | -15.13098 | 38594 ft | 437 kts | 273° |
| 2026-04-18 09:29 | 53.50344 | -15.18216 | 38708 ft | 437 kts | 274° |
| 2026-04-18 09:29 | 53.50448 | -15.23300 | 38900 ft | 435 kts | 274° |
| 2026-04-18 09:30 | 53.50650 | -15.33463 | 39047 ft | 436 kts | 274° |
| 2026-04-18 09:30 | 53.50836 | -15.43646 | 39228 ft | 435 kts | 273° |
| 2026-04-18 09:31 | 53.51007 | -15.53813 | 39333 ft | 436 kts | 273° |
| 2026-04-18 09:31 | 53.51169 | -15.63970 | 39339 ft | 437 kts | 273° |
| 2026-04-18 09:32 | 53.51323 | -15.74188 | 39333 ft | 435 kts | 273° |
| 2026-04-18 09:32 | 53.51466 | -15.84317 | 39335 ft | 433 kts | 273° |
| 2026-04-18 09:33 | 53.51602 | -15.94424 | 39335 ft | 433 kts | 273° |
| 2026-04-18 09:33 | 53.51729 | -16.04544 | 39336 ft | 433 kts | 272° |
| 2026-04-18 09:34 | 53.51848 | -16.14653 | 39338 ft | 433 kts | 272° |
| 2026-04-18 09:34 | 53.51958 | -16.24777 | 39338 ft | 433 kts | 272° |
| 2026-04-18 09:35 | 53.52059 | -16.34888 | 39336 ft | 433 kts | 272° |
| 2026-04-18 09:35 | 53.52152 | -16.45000 | 39333 ft | 433 kts | 272° |
| 2026-04-18 09:36 | 53.52235 | -16.55052 | 39333 ft | 433 kts | 272° |
| 2026-04-18 09:36 | 53.52311 | -16.65163 | 39333 ft | 433 kts | 272° |
| 2026-04-18 09:37 | 53.52378 | -16.75275 | 39333 ft | 433 kts | 272° |
| 2026-04-18 09:37 | 53.52437 | -16.85394 | 39334 ft | 432 kts | 272° |
| 2026-04-18 09:38 | 53.52488 | -16.95477 | 39334 ft | 431 kts | 272° |
| 2026-04-18 09:38 | 53.52529 | -17.05551 | 39334 ft | 431 kts | 272° |
| 2026-04-18 09:39 | 53.52562 | -17.15633 | 39335 ft | 431 kts | 271° |
| 2026-04-18 09:39 | 53.52587 | -17.25715 | 39330 ft | 431 kts | 271° |
| 2026-04-18 09:40 | 53.52603 | -17.35791 | 39327 ft | 431 kts | 271° |
| 2026-04-18 09:40 | 53.52610 | -17.45856 | 39330 ft | 430 kts | 271° |
| 2026-04-18 09:41 | 53.52610 | -17.55919 | 39330 ft | 430 kts | 271° |
| 2026-04-18 09:41 | 53.52601 | -17.65977 | 39330 ft | 430 kts | 271° |
| 2026-04-18 09:42 | 53.52583 | -17.75974 | 39332 ft | 430 kts | 271° |
| 2026-04-18 09:42 | 53.52557 | -17.86031 | 39312 ft | 430 kts | 270° |
| 2026-04-18 09:43 | 53.52523 | -17.96088 | 39328 ft | 430 kts | 270° |
| 2026-04-18 09:43 | 53.52480 | -18.06149 | 39329 ft | 430 kts | 270° |
| 2026-04-18 09:44 | 53.52428 | -18.16204 | 39326 ft | 430 kts | 270° |
| 2026-04-18 09:44 | 53.52369 | -18.26252 | 39326 ft | 430 kts | 270° |
| 2026-04-18 09:45 | 53.52301 | -18.36317 | 39325 ft | 430 kts | 270° |
| 2026-04-18 09:45 | 53.52224 | -18.46371 | 39325 ft | 430 kts | 270° |
| 2026-04-18 09:46 | 53.52139 | -18.56431 | 39326 ft | 430 kts | 270° |
| 2026-04-18 09:46 | 53.52045 | -18.66499 | 39320 ft | 430 kts | 270° |
| 2026-04-18 09:47 | 53.51944 | -18.76561 | 39326 ft | 430 kts | 270° |
| 2026-04-18 09:47 | 53.51834 | -18.86557 | 39324 ft | 430 kts | 270° |
| 2026-04-18 09:48 | 53.51715 | -18.96604 | 39323 ft | 430 kts | 269° |
| 2026-04-18 09:48 | 53.51588 | -19.06661 | 39320 ft | 430 kts | 269° |
| 2026-04-18 09:49 | 53.51452 | -19.16712 | 39320 ft | 430 kts | 269° |
| 2026-04-18 09:49 | 53.51308 | -19.26773 | 39320 ft | 430 kts | 269° |
| 2026-04-18 09:50 | 53.51155 | -19.36836 | 39320 ft | 431 kts | 269° |
| 2026-04-18 09:50 | 53.50994 | -19.46891 | 39308 ft | 431 kts | 269° |
| 2026-04-18 09:51 | 53.50825 | -19.56923 | 39311 ft | 429 kts | 269° |
| 2026-04-18 09:51 | 53.50648 | -19.66942 | 39319 ft | 428 kts | 269° |
| 2026-04-18 09:52 | 53.50462 | -19.76947 | 39316 ft | 428 kts | 269° |
| 2026-04-18 09:52 | 53.50269 | -19.86890 | 39314 ft | 428 kts | 269° |
| 2026-04-18 09:53 | 53.50119 | -19.96901 | 39314 ft | 428 kts | 272° |
| 2026-04-18 09:53 | 53.50988 | -20.06767 | 39309 ft | 427 kts | 282° |
| 2026-04-18 09:54 | 53.52328 | -20.16467 | 39310 ft | 425 kts | 283° |
| 2026-04-18 09:54 | 53.53731 | -20.26115 | 39316 ft | 425 kts | 283° |
| 2026-04-18 09:55 | 53.55121 | -20.35773 | 39305 ft | 424 kts | 283° |
| 2026-04-18 09:55 | 53.56487 | -20.45421 | 39304 ft | 424 kts | 283° |
| 2026-04-18 09:56 | 53.57840 | -20.55084 | 39305 ft | 424 kts | 282° |
| 2026-04-18 09:56 | 53.58956 | -20.63104 | 39296 ft | 424 kts | 282° |
| 2026-04-18 09:57 | 53.60297 | -20.72786 | 39296 ft | 425 kts | 282° |
| 2026-04-18 09:57 | 53.61628 | -20.82464 | 39290 ft | 425 kts | 282° |
| 2026-04-18 09:58 | 53.62954 | -20.92164 | 39295 ft | 425 kts | 282° |
| 2026-04-18 09:58 | 53.64271 | -21.01864 | 39290 ft | 425 kts | 282° |
| 2026-04-18 09:59 | 53.65581 | -21.11571 | 39292 ft | 425 kts | 282° |
| 2026-04-18 10:00 | 53.67529 | -21.26141 | 39285 ft | 424 kts | 282° |
| 2026-04-18 10:00 | 53.68818 | -21.35855 | 39287 ft | 423 kts | 281° |
| 2026-04-18 10:01 | 53.70093 | -21.45528 | 39290 ft | 422 kts | 281° |
| 2026-04-18 10:01 | 53.71359 | -21.55203 | 39286 ft | 422 kts | 281° |
| 2026-04-18 10:02 | 53.72609 | -21.64814 | 39283 ft | 422 kts | 281° |
| 2026-04-18 10:02 | 53.73859 | -21.74496 | 39281 ft | 422 kts | 281° |
| 2026-04-18 10:03 | 53.75103 | -21.84192 | 39275 ft | 422 kts | 281° |
| 2026-04-18 10:03 | 53.76337 | -21.93881 | 39288 ft | 422 kts | 281° |
| 2026-04-18 10:04 | 53.77560 | -22.03548 | 39274 ft | 420 kts | 281° |
| 2026-04-18 10:04 | 53.78772 | -22.13197 | 39274 ft | 419 kts | 281° |
| 2026-04-18 10:05 | 53.79975 | -22.22846 | 39273 ft | 419 kts | 281° |
| 2026-04-18 10:05 | 53.81170 | -22.32500 | 39264 ft | 419 kts | 281° |
| 2026-04-18 10:06 | 53.82359 | -22.42167 | 39266 ft | 419 kts | 280° |
| 2026-04-18 10:06 | 53.83539 | -22.51826 | 39270 ft | 419 kts | 280° |
| 2026-04-18 10:07 | 53.84712 | -22.61498 | 39254 ft | 418 kts | 280° |
| 2026-04-18 10:07 | 53.85866 | -22.71084 | 39266 ft | 418 kts | 280° |
| 2026-04-18 10:08 | 53.87019 | -22.80735 | 39248 ft | 418 kts | 280° |
| 2026-04-18 10:08 | 53.88164 | -22.90390 | 39262 ft | 418 kts | 279° |
| 2026-04-18 10:09 | 53.89302 | -23.00050 | 39248 ft | 418 kts | 279° |
| 2026-04-18 10:09 | 53.90432 | -23.09713 | 39254 ft | 418 kts | 279° |
| 2026-04-18 10:10 | 53.91555 | -23.19388 | 39248 ft | 418 kts | 279° |
| 2026-04-18 10:10 | 53.92669 | -23.29067 | 39243 ft | 418 kts | 279° |
| 2026-04-18 10:11 | 53.93776 | -23.38750 | 39244 ft | 418 kts | 279° |
| 2026-04-18 10:11 | 53.94876 | -23.48441 | 39245 ft | 418 kts | 279° |
| 2026-04-18 10:12 | 53.95969 | -23.58146 | 39252 ft | 418 kts | 279° |
| 2026-04-18 10:12 | 53.97053 | -23.67844 | 39232 ft | 418 kts | 278° |
| 2026-04-18 10:13 | 53.98127 | -23.77534 | 39232 ft | 417 kts | 278° |
| 2026-04-18 10:13 | 53.99186 | -23.87169 | 39233 ft | 417 kts | 278° |
| 2026-04-18 10:14 | 54.00245 | -23.96870 | 39227 ft | 417 kts | 278° |
| 2026-04-18 10:14 | 54.01296 | -24.06577 | 39223 ft | 417 kts | 278° |
| 2026-04-18 10:15 | 54.02340 | -24.16294 | 39223 ft | 417 kts | 278° |
| 2026-04-18 10:15 | 54.03374 | -24.26001 | 39226 ft | 417 kts | 278° |
| 2026-04-18 10:16 | 54.04390 | -24.35617 | 39216 ft | 417 kts | 278° |
| 2026-04-18 10:16 | 54.05410 | -24.45346 | 39209 ft | 417 kts | 277° |
| 2026-04-18 10:17 | 54.06421 | -24.55056 | 39220 ft | 417 kts | 277° |
| 2026-04-18 10:17 | 54.07425 | -24.64795 | 39205 ft | 417 kts | 277° |
| 2026-04-18 10:18 | 54.08421 | -24.74532 | 39205 ft | 417 kts | 277° |
| 2026-04-18 10:18 | 54.09409 | -24.84276 | 39203 ft | 417 kts | 277° |
| 2026-04-18 10:19 | 54.10381 | -24.93948 | 39203 ft | 417 kts | 277° |
| 2026-04-18 10:19 | 54.11353 | -25.03688 | 39194 ft | 417 kts | 277° |
| 2026-04-18 10:20 | 54.12317 | -25.13438 | 39191 ft | 418 kts | 276° |
| 2026-04-18 10:20 | 54.13276 | -25.23232 | 39190 ft | 419 kts | 276° |
| 2026-04-18 10:21 | 54.14228 | -25.33034 | 39206 ft | 419 kts | 276° |
| 2026-04-18 10:21 | 54.15172 | -25.42829 | 39179 ft | 418 kts | 276° |
| 2026-04-18 10:22 | 54.16108 | -25.52633 | 39181 ft | 418 kts | 276° |
| 2026-04-18 10:22 | 54.17034 | -25.62427 | 39175 ft | 418 kts | 276° |
| 2026-04-18 10:23 | 54.17953 | -25.72234 | 39170 ft | 418 kts | 276° |
| 2026-04-18 10:23 | 54.18865 | -25.82049 | 39167 ft | 419 kts | 276° |
| 2026-04-18 10:24 | 54.19770 | -25.91886 | 39162 ft | 419 kts | 276° |
| 2026-04-18 10:24 | 54.20667 | -26.01733 | 39156 ft | 419 kts | 275° |
| 2026-04-18 10:25 | 54.21557 | -26.11583 | 39157 ft | 419 kts | 275° |
| 2026-04-18 10:25 | 54.22438 | -26.21435 | 39159 ft | 419 kts | 275° |
| 2026-04-18 10:26 | 54.23306 | -26.31219 | 39148 ft | 419 kts | 275° |
| 2026-04-18 10:26 | 54.24171 | -26.41077 | 39136 ft | 419 kts | 275° |
| 2026-04-18 10:27 | 54.25029 | -26.50954 | 39138 ft | 420 kts | 275° |
| 2026-04-18 10:27 | 54.25879 | -26.60825 | 39138 ft | 420 kts | 275° |
| 2026-04-18 10:28 | 54.26721 | -26.70713 | 39127 ft | 420 kts | 275° |
| 2026-04-18 10:28 | 54.27556 | -26.80603 | 39121 ft | 420 kts | 275° |
| 2026-04-18 10:29 | 54.28380 | -26.90486 | 39113 ft | 420 kts | 275° |
| 2026-04-18 10:29 | 54.29193 | -27.00379 | 39113 ft | 420 kts | 274° |
| 2026-04-18 10:30 | 54.30001 | -27.10314 | 39118 ft | 424 kts | 274° |
| 2026-04-18 10:30 | 54.30812 | -27.20372 | 39101 ft | 428 kts | 274° |
| 2026-04-18 10:31 | 54.31625 | -27.30531 | 39098 ft | 433 kts | 274° |
| 2026-04-18 10:31 | 54.32438 | -27.40788 | 39097 ft | 437 kts | 274° |
| 2026-04-18 10:32 | 54.33249 | -27.51140 | 39084 ft | 441 kts | 274° |
| 2026-04-18 10:32 | 54.34059 | -27.61605 | 39083 ft | 444 kts | 274° |
| 2026-04-18 10:33 | 54.34856 | -27.72008 | 39078 ft | 443 kts | 274° |
| 2026-04-18 10:33 | 54.35650 | -27.82494 | 39060 ft | 443 kts | 274° |
| 2026-04-18 10:34 | 54.36435 | -27.92987 | 39061 ft | 444 kts | 274° |
| 2026-04-18 10:34 | 54.37211 | -28.03493 | 39056 ft | 444 kts | 273° |
| 2026-04-18 10:35 | 54.37978 | -28.14013 | 39056 ft | 444 kts | 273° |
| 2026-04-18 10:35 | 54.38735 | -28.24525 | 39048 ft | 444 kts | 273° |
| 2026-04-18 10:36 | 54.39485 | -28.35064 | 39039 ft | 444 kts | 273° |
| 2026-04-18 10:36 | 54.40225 | -28.45596 | 39048 ft | 444 kts | 273° |
| 2026-04-18 10:37 | 54.40955 | -28.56122 | 39022 ft | 444 kts | 273° |
| 2026-04-18 10:37 | 54.41676 | -28.66654 | 39030 ft | 444 kts | 273° |
| 2026-04-18 10:38 | 54.42388 | -28.77195 | 39014 ft | 444 kts | 273° |
| 2026-04-18 10:38 | 54.43091 | -28.87732 | 39011 ft | 444 kts | 272° |
| 2026-04-18 10:39 | 54.43781 | -28.98217 | 39008 ft | 444 kts | 272° |
| 2026-04-18 10:39 | 54.44466 | -29.08778 | 38996 ft | 445 kts | 272° |
| 2026-04-18 10:40 | 54.45143 | -29.19355 | 38988 ft | 445 kts | 272° |
| 2026-04-18 10:40 | 54.45811 | -29.29934 | 38977 ft | 445 kts | 272° |
| 2026-04-18 10:41 | 54.46468 | -29.40502 | 38977 ft | 445 kts | 272° |
| 2026-04-18 10:41 | 54.47116 | -29.51072 | 38977 ft | 445 kts | 272° |
| 2026-04-18 10:42 | 54.47756 | -29.61658 | 38955 ft | 445 kts | 272° |
| 2026-04-18 10:42 | 54.48382 | -29.72169 | 38978 ft | 445 kts | 272° |
| 2026-04-18 10:43 | 54.49003 | -29.82760 | 38942 ft | 445 kts | 272° |
| 2026-04-18 10:43 | 54.49615 | -29.93359 | 38930 ft | 445 kts | 272° |
| 2026-04-18 10:44 | 54.50208 | -30.03959 | 38929 ft | 445 kts | 271° |
| 2026-04-18 10:44 | 54.50580 | -30.12768 | 38919 ft | 444 kts | 270° |
| 2026-04-18 10:45 | 54.50963 | -30.23379 | 38919 ft | 444 kts | 270° |
| 2026-04-18 10:45 | 54.51354 | -30.33995 | 38900 ft | 444 kts | 270° |
| 2026-04-18 10:46 | 54.51753 | -30.44627 | 38897 ft | 445 kts | 270° |
| 2026-04-18 10:46 | 54.52150 | -30.55250 | 38897 ft | 445 kts | 270° |
| 2026-04-18 10:47 | 54.52538 | -30.65891 | 38882 ft | 445 kts | 270° |
| 2026-04-18 10:47 | 54.52915 | -30.76548 | 38873 ft | 446 kts | 269° |
| 2026-04-18 10:48 | 54.53282 | -30.87143 | 38860 ft | 446 kts | 269° |
| 2026-04-18 10:48 | 54.53641 | -30.97817 | 38861 ft | 446 kts | 269° |
| 2026-04-18 10:49 | 54.53991 | -31.08492 | 38844 ft | 447 kts | 269° |
| 2026-04-18 10:49 | 54.54332 | -31.19182 | 38832 ft | 447 kts | 269° |
| 2026-04-18 10:50 | 54.54664 | -31.29888 | 38833 ft | 447 kts | 269° |
| 2026-04-18 10:50 | 54.54986 | -31.40581 | 38805 ft | 447 kts | 269° |
| 2026-04-18 10:51 | 54.55299 | -31.51296 | 38806 ft | 447 kts | 269° |
| 2026-04-18 10:51 | 54.55603 | -31.61999 | 38809 ft | 447 kts | 269° |
| 2026-04-18 10:52 | 54.55897 | -31.72711 | 38795 ft | 448 kts | 269° |
| 2026-04-18 10:52 | 54.56180 | -31.83369 | 38775 ft | 448 kts | 269° |
| 2026-04-18 10:53 | 54.56455 | -31.94087 | 38768 ft | 448 kts | 269° |
| 2026-04-18 10:53 | 54.56722 | -32.04831 | 38765 ft | 448 kts | 269° |
| 2026-04-18 10:54 | 54.56978 | -32.15544 | 38763 ft | 448 kts | 269° |
| 2026-04-18 10:54 | 54.57225 | -32.26275 | 38753 ft | 448 kts | 268° |
| 2026-04-18 10:55 | 54.57463 | -32.37003 | 38750 ft | 449 kts | 268° |
| 2026-04-18 10:55 | 54.57691 | -32.47766 | 38750 ft | 449 kts | 268° |
| 2026-04-18 10:56 | 54.57910 | -32.58429 | 38723 ft | 446 kts | 268° |
| 2026-04-18 10:56 | 54.58119 | -32.69158 | 38704 ft | 444 kts | 268° |
| 2026-04-18 10:57 | 54.58315 | -32.79727 | 38703 ft | 444 kts | 268° |
| 2026-04-18 10:57 | 54.58503 | -32.90361 | 38691 ft | 444 kts | 268° |
| 2026-04-18 10:58 | 54.58682 | -33.01002 | 38680 ft | 443 kts | 268° |
| 2026-04-18 10:58 | 54.58852 | -33.11632 | 38677 ft | 443 kts | 268° |
| 2026-04-18 10:59 | 54.59012 | -33.22257 | 38662 ft | 443 kts | 268° |
| 2026-04-18 10:59 | 54.59163 | -33.32875 | 38644 ft | 443 kts | 267° |
| 2026-04-18 11:00 | 54.59305 | -33.43504 | 38676 ft | 443 kts | 267° |
| 2026-04-18 11:00 | 54.59436 | -33.54069 | 38631 ft | 444 kts | 267° |
| 2026-04-18 11:01 | 54.59560 | -33.64729 | 38623 ft | 444 kts | 267° |
| 2026-04-18 11:01 | 54.59674 | -33.75340 | 38597 ft | 442 kts | 267° |
| 2026-04-18 11:02 | 54.59827 | -33.91236 | 38595 ft | 442 kts | 267° |
| 2026-04-18 11:02 | 54.59917 | -34.01826 | 38564 ft | 442 kts | 267° |
| 2026-04-18 11:03 | 54.59998 | -34.12431 | 38564 ft | 442 kts | 266° |
| 2026-04-18 11:03 | 54.60070 | -34.23026 | 38568 ft | 441 kts | 266° |
| 2026-04-18 11:04 | 54.60132 | -34.33607 | 38542 ft | 440 kts | 266° |
| 2026-04-18 11:04 | 54.60185 | -34.44108 | 38538 ft | 441 kts | 266° |
| 2026-04-18 11:05 | 54.60229 | -34.54701 | 38530 ft | 442 kts | 266° |
| 2026-04-18 11:05 | 54.60264 | -34.65306 | 38530 ft | 442 kts | 266° |
| 2026-04-18 11:06 | 54.60290 | -34.75902 | 38515 ft | 442 kts | 266° |
| 2026-04-18 11:06 | 54.60306 | -34.86530 | 38500 ft | 442 kts | 266° |
| 2026-04-18 11:07 | 54.60313 | -34.97068 | 38497 ft | 442 kts | 266° |
| 2026-04-18 11:07 | 54.60311 | -35.07731 | 38485 ft | 442 kts | 266° |
| 2026-04-18 11:08 | 54.60300 | -35.18270 | 38471 ft | 442 kts | 265° |
| 2026-04-18 11:08 | 54.60279 | -35.28871 | 38470 ft | 442 kts | 265° |
| 2026-04-18 11:09 | 54.60249 | -35.39490 | 38446 ft | 444 kts | 265° |
| 2026-04-18 11:09 | 54.60209 | -35.50178 | 38450 ft | 445 kts | 265° |
| 2026-04-18 11:10 | 54.60160 | -35.60859 | 38432 ft | 445 kts | 265° |
| 2026-04-18 11:10 | 54.60104 | -35.71494 | 38424 ft | 443 kts | 265° |
| 2026-04-18 11:11 | 54.60036 | -35.82122 | 38426 ft | 443 kts | 265° |
| 2026-04-18 11:11 | 54.59959 | -35.92745 | 38399 ft | 443 kts | 265° |
| 2026-04-18 11:12 | 54.59873 | -36.03368 | 38400 ft | 443 kts | 265° |
| 2026-04-18 11:12 | 54.59779 | -36.13926 | 38381 ft | 443 kts | 265° |
| 2026-04-18 11:13 | 54.59674 | -36.24546 | 38402 ft | 443 kts | 265° |
| 2026-04-18 11:13 | 54.59561 | -36.35164 | 38369 ft | 443 kts | 264° |
| 2026-04-18 11:14 | 54.59437 | -36.45789 | 38354 ft | 443 kts | 264° |
| 2026-04-18 11:14 | 54.59305 | -36.56422 | 38354 ft | 443 kts | 264° |
| 2026-04-18 11:15 | 54.59163 | -36.67033 | 38329 ft | 443 kts | 264° |
| 2026-04-18 11:15 | 54.59012 | -36.77663 | 38328 ft | 443 kts | 264° |
| 2026-04-18 11:16 | 54.58852 | -36.88285 | 38332 ft | 443 kts | 264° |
| 2026-04-18 11:16 | 54.58683 | -36.98888 | 38306 ft | 442 kts | 264° |
| 2026-04-18 11:17 | 54.58505 | -37.09470 | 38304 ft | 441 kts | 264° |
| 2026-04-18 11:17 | 54.58317 | -37.20057 | 38305 ft | 442 kts | 263° |
| 2026-04-18 11:18 | 54.58119 | -37.30671 | 38296 ft | 444 kts | 263° |
| 2026-04-18 11:18 | 54.57911 | -37.41327 | 38278 ft | 445 kts | 263° |
| 2026-04-18 11:19 | 54.57695 | -37.51976 | 38276 ft | 445 kts | 263° |
| 2026-04-18 11:19 | 54.57469 | -37.62645 | 38277 ft | 447 kts | 263° |
| 2026-04-18 11:20 | 54.57230 | -37.73383 | 38255 ft | 449 kts | 263° |
| 2026-04-18 11:20 | 54.56984 | -37.84139 | 38254 ft | 449 kts | 263° |
| 2026-04-18 11:21 | 54.56728 | -37.94886 | 38249 ft | 449 kts | 263° |
| 2026-04-18 11:21 | 54.56463 | -38.05571 | 38248 ft | 449 kts | 263° |
| 2026-04-18 11:22 | 54.56187 | -38.16327 | 38251 ft | 450 kts | 262° |
| 2026-04-18 11:22 | 54.55899 | -38.27116 | 38240 ft | 452 kts | 262° |
| 2026-04-18 11:23 | 54.55601 | -38.37976 | 38236 ft | 455 kts | 262° |
| 2026-04-18 11:23 | 54.55293 | -38.48860 | 38248 ft | 454 kts | 262° |
| 2026-04-18 11:24 | 54.54976 | -38.59726 | 38244 ft | 454 kts | 262° |
| 2026-04-18 11:24 | 54.54648 | -38.70597 | 38246 ft | 454 kts | 262° |
| 2026-04-18 11:25 | 54.54311 | -38.81473 | 38253 ft | 454 kts | 262° |
| 2026-04-18 11:25 | 54.53965 | -38.92271 | 38264 ft | 455 kts | 262° |
| 2026-04-18 11:26 | 54.53605 | -39.03237 | 38281 ft | 456 kts | 262° |
| 2026-04-18 11:26 | 54.53240 | -39.14059 | 38284 ft | 455 kts | 262° |
| 2026-04-18 11:27 | 54.52864 | -39.24927 | 38318 ft | 454 kts | 262° |
| 2026-04-18 11:27 | 54.52476 | -39.35799 | 38314 ft | 455 kts | 261° |
| 2026-04-18 11:28 | 54.52080 | -39.46685 | 38309 ft | 455 kts | 262° |
| 2026-04-18 11:28 | 54.51676 | -39.57537 | 38324 ft | 453 kts | 261° |
| 2026-04-18 11:29 | 54.51260 | -39.68385 | 38343 ft | 455 kts | 262° |
| 2026-04-18 11:29 | 54.50833 | -39.79242 | 38359 ft | 452 kts | 261° |
| 2026-04-18 11:30 | 54.50398 | -39.90066 | 38362 ft | 455 kts | 261° |
| 2026-04-18 11:30 | 54.49941 | -39.99078 | 38404 ft | 452 kts | 256° |
| 2026-04-18 11:31 | 54.48569 | -40.09592 | 38398 ft | 451 kts | 252° |
| 2026-04-18 11:31 | 54.46995 | -40.20029 | 38394 ft | 451 kts | 252° |
| 2026-04-18 11:32 | 54.45381 | -40.30454 | 38411 ft | 450 kts | 252° |
| 2026-04-18 11:32 | 54.43764 | -40.40891 | 38411 ft | 452 kts | 252° |
| 2026-04-18 11:33 | 54.42152 | -40.51302 | 38442 ft | 452 kts | 252° |
| 2026-04-18 11:33 | 54.40529 | -40.61727 | 38440 ft | 452 kts | 252° |
| 2026-04-18 11:34 | 54.38896 | -40.72152 | 38455 ft | 452 kts | 252° |
| 2026-04-18 11:34 | 54.37264 | -40.82508 | 38453 ft | 454 kts | 252° |
| 2026-04-18 11:35 | 54.35611 | -40.92927 | 38458 ft | 453 kts | 252° |
| 2026-04-18 11:35 | 54.33946 | -41.03363 | 38468 ft | 453 kts | 252° |
| 2026-04-18 11:36 | 54.32269 | -41.13788 | 38482 ft | 454 kts | 252° |